Pagrindinis puslapis
METAR-TAF:

METAR-TAF

Oro uostai :

Lapenranta, Suomija

platuma: 61-02-45N, ilguma: 028-08-55E, Aukštis: 106 m

Dabartinis oras

Ataskaita buvo paskelbta 37 minutes, ne 09:20 UTC
Vėjas 7 kt iš Pietryčių
Temperatūra -4°C
Drėgmė 100%
Slėgis 1008 hPa
Matomumas: 2500 m
Apsiniaukę ne aukštis 400 ft
sniegas

METAR: EFLP 070920Z AUTO 14007KT 2500 -SN OVC004 M04/M04 Q1008

Laikas: 11:57 (09:57 UTC)


TAF: trūkstamas

Orai ataskaitas ir orų prognozės (METAR, TAF).

turimą stotys yra geltonos ir raudonos taškus žemėlapyje.

Perkelti pele per norėdami pamatyti stoties vardą.

Tada spustelėkite, norėdami matyti oro stebėjimo ir prognozės.

Norėdami pakeisti žemėlapį: spustelėkite ant žalios mygtukų su juodo kryžiaus žemyn,; žalią mygtuką su brūkšneliu, jei norite nutolinti; arba žalių rodyklių gretimoms žemėlapius.


METAR-TAF: